Time,TemperatureF,DewpointF,PressureIn,WindDirection,WindDirectionDegrees,WindSpeedMPH,WindSpeedGustMPH,Humidity,HourlyPrecipIn,Conditions,Clouds,dailyrainin,SoftwareType,DateUTC
2013-10-07 00:00:00,50.0,44.1,29.77,SW,224,4.0,9.0,80,0.00,,---,0.27,VWS V14.01,2013-10-07 04:00:00,
2013-10-07 00:30:00,49.1,43.8,29.77,WNW,283,6.0,8.0,82,0.00,,---,0.00,VWS V14.01,2013-10-07 04:30:00,
2013-10-07 01:00:00,47.6,42.7,29.76,SSW,208,1.0,8.0,83,0.00,,---,0.00,VWS V14.01,2013-10-07 05:00:00,
2013-10-07 01:30:00,46.2,42.2,29.76,West,269,3.0,4.0,86,0.00,,---,0.00,VWS V14.01,2013-10-07 05:30:00,
2013-10-07 02:00:00,45.9,42.5,29.77,SSE,154,1.0,3.0,88,0.00,,---,0.00,VWS V14.01,2013-10-07 06:00:00,
2013-10-07 02:30:00,45.3,42.3,29.77,WSW,248,2.0,4.0,89,0.00,,---,0.00,VWS V14.01,2013-10-07 06:30:00,
2013-10-07 03:00:00,45.1,42.1,29.77,SW,225,2.0,5.0,89,0.00,,---,0.00,VWS V14.01,2013-10-07 07:00:00,
2013-10-07 03:30:00,44.7,41.7,29.76,SSW,205,0.0,4.0,89,0.00,,---,0.00,VWS V14.01,2013-10-07 07:30:00,
2013-10-07 04:00:00,44.5,42.0,29.76,WSW,256,5.0,5.0,91,0.00,,---,0.00,VWS V14.01,2013-10-07 08:00:00,
2013-10-07 04:30:00,45.0,42.8,29.77,SW,235,0.0,5.0,92,0.00,,---,0.00,VWS V14.01,2013-10-07 08:30:00,
2013-10-07 05:00:00,45.2,43.3,29.78,South,187,2.0,5.0,93,0.00,,---,0.00,VWS V14.01,2013-10-07 09:00:00,
2013-10-07 05:30:00,46.3,44.4,29.78,SW,222,2.0,6.0,93,0.00,,---,0.00,VWS V14.01,2013-10-07 09:30:00,
2013-10-07 06:00:00,47.2,45.0,29.79,SSW,205,2.0,9.0,92,0.00,,---,0.00,VWS V14.01,2013-10-07 10:00:00,
2013-10-07 06:30:00,47.3,44.8,29.79,West,267,2.0,11.0,91,0.00,,---,0.00,VWS V14.01,2013-10-07 10:30:00,
2013-10-07 07:00:00,47.7,45.5,29.81,West,279,6.0,13.0,92,0.00,,---,0.00,VWS V14.01,2013-10-07 11:00:00,
2013-10-07 07:30:00,47.6,44.8,29.82,West,269,8.0,12.0,90,0.00,,---,0.00,VWS V14.01,2013-10-07 11:30:00,
2013-10-07 08:01:00,46.8,44.0,29.83,West,259,7.0,13.0,90,0.00,,---,0.00,VWS V14.01,2013-10-07 12:01:00,
2013-10-07 08:30:00,46.8,44.0,29.83,WSW,248,6.0,10.0,90,0.00,,---,0.00,VWS V14.01,2013-10-07 12:30:00,
2013-10-07 09:00:00,47.6,44.8,29.84,West,262,5.0,15.0,90,0.00,,---,0.00,VWS V14.01,2013-10-07 13:00:00,
2013-10-07 09:30:00,47.8,44.7,29.87,WNW,283,11.0,15.0,89,0.00,,---,0.00,VWS V14.01,2013-10-07 13:30:00,
2013-10-07 10:00:00,48.3,45.5,29.87,WNW,294,10.0,13.0,90,0.00,,---,0.00,VWS V14.01,2013-10-07 14:00:00,
2013-10-07 10:30:00,49.5,45.5,29.88,WNW,297,9.0,14.0,86,0.00,,---,0.00,VWS V14.01,2013-10-07 14:30:00,
2013-10-07 11:00:00,50.8,45.5,29.89,SW,218,7.0,15.0,82,0.00,,---,0.00,VWS V14.01,2013-10-07 15:00:00,
2013-10-07 11:30:00,52.2,46.5,29.89,WSW,256,13.0,14.0,81,0.00,,---,0.00,VWS V14.01,2013-10-07 15:30:00,
2013-10-07 12:00:00,53.8,46.8,29.90,WNW,291,7.0,15.0,77,0.00,,---,0.00,VWS V14.01,2013-10-07 16:00:00,
2013-10-07 12:30:00,54.5,47.1,29.92,West,271,11.0,17.0,76,0.00,,---,0.00,VWS V14.01,2013-10-07 16:30:00,
2013-10-07 13:01:00,53.8,48.4,29.94,West,270,11.0,18.0,82,0.00,,---,0.00,VWS V14.01,2013-10-07 17:01:00,
2013-10-07 13:30:00,53.7,49.0,29.94,West,274,9.0,17.0,84,0.00,,---,0.00,VWS V14.01,2013-10-07 17:30:00,
2013-10-07 14:00:00,53.5,49.1,29.95,West,274,8.0,15.0,85,0.00,,---,0.00,VWS V14.01,2013-10-07 18:00:00,
2013-10-07 14:30:00,53.5,49.4,29.95,West,271,9.0,16.0,86,0.00,,---,0.00,VWS V14.01,2013-10-07 18:30:00,
2013-10-07 15:00:00,54.5,50.1,29.96,West,277,7.0,14.0,85,0.00,,---,0.00,VWS V14.01,2013-10-07 19:00:00,
2013-10-07 15:30:00,56.1,49.3,29.97,West,267,5.0,15.0,78,0.00,,---,0.00,VWS V14.01,2013-10-07 19:30:00,
2013-10-07 16:00:00,57.7,50.2,29.97,WNW,290,6.0,13.0,76,0.00,,---,0.00,VWS V14.01,2013-10-07 20:00:00,
2013-10-07 16:30:00,59.3,50.3,29.98,NNW,333,6.0,15.0,72,0.00,,---,0.00,VWS V14.01,2013-10-07 20:30:00,
2013-10-07 17:00:00,60.2,50.4,29.98,NW,321,5.0,12.0,70,0.00,,---,0.00,VWS V14.01,2013-10-07 21:00:00,
2013-10-07 17:30:00,61.2,49.3,29.99,NW,311,8.0,12.0,65,0.00,,---,0.00,VWS V14.01,2013-10-07 21:30:00,
2013-10-07 18:30:00,62.0,49.3,30.00,WNW,301,5.0,8.0,63,0.00,,---,0.00,VWS V14.01,2013-10-07 22:30:00,
2013-10-07 19:00:00,60.7,49.3,30.02,NW,323,5.0,8.0,66,0.00,,---,0.00,VWS V14.01,2013-10-07 23:00:00,
2013-10-07 19:30:00,56.9,48.0,30.03,East,85,1.0,6.0,72,0.00,,---,0.00,VWS V14.01,2013-10-07 23:30:00,
2013-10-07 20:00:00,52.1,47.1,30.05,ESE,110,1.0,1.0,83,0.00,,---,0.00,VWS V14.01,2013-10-08 00:00:00,
2013-10-07 20:30:00,50.2,47.1,30.06,ESE,110,0.0,2.0,89,0.00,,---,0.00,VWS V14.01,2013-10-08 00:30:00,
2013-10-07 21:00:00,48.8,46.3,30.07,ESE,113,1.0,2.0,91,0.00,,---,0.00,VWS V14.01,2013-10-08 01:00:00,
2013-10-07 21:30:00,48.1,45.9,30.08,ESE,117,0.0,1.0,92,0.00,,---,0.00,VWS V14.01,2013-10-08 01:30:00,
2013-10-07 22:00:00,47.2,45.3,30.09,ESE,117,0.0,1.0,93,0.00,,---,0.00,VWS V14.01,2013-10-08 02:00:00,
2013-10-07 22:30:00,46.6,45.0,30.10,ESE,117,0.0,1.0,94,0.00,,---,0.00,VWS V14.01,2013-10-08 02:30:00,
2013-10-07 23:00:00,46.2,44.8,30.11,East,92,0.0,3.0,95,0.00,,---,0.00,VWS V14.01,2013-10-08 03:00:00,
2013-10-07 23:30:00,45.8,44.5,30.12,East,92,1.0,1.0,95,0.00,,---,0.00,VWS V14.01,2013-10-08 03:30:00,